sensor_id;sensor_type;location;lat;lon;timestamp;pressure;altitude;pressure_sealevel;temperature;humidity
3598;BME280;1813;52.016;8.714;2023-04-03T00:01:24;-16261.94;;;-139.71;58.00
3598;BME280;1813;52.016;8.714;2023-04-03T00:03:58;-16261.94;;;-139.71;58.05
3598;BME280;1813;52.016;8.714;2023-04-03T00:06:32;-16261.94;;;-139.71;58.08
3598;BME280;1813;52.016;8.714;2023-04-03T00:09:09;-16261.94;;;-139.71;58.26
3598;BME280;1813;52.016;8.714;2023-04-03T00:11:42;-16261.94;;;-139.71;58.31
3598;BME280;1813;52.016;8.714;2023-04-03T00:14:17;-16261.94;;;-139.71;58.38
3598;BME280;1813;52.016;8.714;2023-04-03T00:16:50;-16261.94;;;-139.71;58.39
3598;BME280;1813;52.016;8.714;2023-04-03T00:19:24;-16261.94;;;-139.71;58.37
3598;BME280;1813;52.016;8.714;2023-04-03T00:21:58;-16261.94;;;-139.71;58.63
3598;BME280;1813;52.016;8.714;2023-04-03T00:24:35;-16261.94;;;-139.71;58.53
3598;BME280;1813;52.016;8.714;2023-04-03T00:27:09;-16261.94;;;-139.71;58.56
3598;BME280;1813;52.016;8.714;2023-04-03T00:29:42;-16261.94;;;-139.71;58.65
3598;BME280;1813;52.016;8.714;2023-04-03T00:32:16;-16261.94;;;-139.71;58.78
3598;BME280;1813;52.016;8.714;2023-04-03T00:34:51;-16261.94;;;-139.71;58.68
3598;BME280;1813;52.016;8.714;2023-04-03T00:37:24;-16261.94;;;-139.71;58.70
3598;BME280;1813;52.016;8.714;2023-04-03T00:40:01;-16261.94;;;-139.71;58.56
3598;BME280;1813;52.016;8.714;2023-04-03T00:42:36;-16261.94;;;-139.71;58.52
3598;BME280;1813;52.016;8.714;2023-04-03T00:45:37;-16261.94;;;-139.71;58.55
3598;BME280;1813;52.016;8.714;2023-04-03T00:48:14;-16261.94;;;-139.71;58.46
3598;BME280;1813;52.016;8.714;2023-04-03T00:50:50;-16261.94;;;-139.71;58.49
3598;BME280;1813;52.016;8.714;2023-04-03T00:53:29;-16261.94;;;-139.71;58.67
3598;BME280;1813;52.016;8.714;2023-04-03T00:56:11;-16261.94;;;-139.71;58.61
3598;BME280;1813;52.016;8.714;2023-04-03T00:58:48;-16261.94;;;-139.71;58.68
3598;BME280;1813;52.016;8.714;2023-04-03T01:01:25;-16261.94;;;-139.71;58.65
3598;BME280;1813;52.016;8.714;2023-04-03T01:04:01;-16261.94;;;-139.71;58.61
3598;BME280;1813;52.016;8.714;2023-04-03T01:06:37;-16261.94;;;-139.71;58.50
3598;BME280;1813;52.016;8.714;2023-04-03T01:09:12;-16261.94;;;-139.71;58.47
3598;BME280;1813;52.016;8.714;2023-04-03T01:11:49;-16261.94;;;-139.71;58.42
3598;BME280;1813;52.016;8.714;2023-04-03T01:14:23;-16261.94;;;-139.71;58.20
3598;BME280;1813;52.016;8.714;2023-04-03T01:16:57;-16261.94;;;-139.71;58.34
3598;BME280;1813;52.016;8.714;2023-04-03T01:19:31;-16261.94;;;-139.71;58.44
3598;BME280;1813;52.016;8.714;2023-04-03T01:22:15;-16261.94;;;-139.71;58.32
3598;BME280;1813;52.016;8.714;2023-04-03T01:24:53;-16261.94;;;-139.71;58.60
3598;BME280;1813;52.016;8.714;2023-04-03T01:27:29;-16261.94;;;-139.71;58.63
3598;BME280;1813;52.016;8.714;2023-04-03T01:30:05;-16261.94;;;-139.71;58.98
3598;BME280;1813;52.016;8.714;2023-04-03T01:32:43;-16261.94;;;-139.71;58.85
3598;BME280;1813;52.016;8.714;2023-04-03T01:35:17;-16261.94;;;-139.71;59.01
3598;BME280;1813;52.016;8.714;2023-04-03T01:37:51;-16261.94;;;-139.71;58.96
3598;BME280;1813;52.016;8.714;2023-04-03T01:40:25;-16261.94;;;-139.71;59.00
3598;BME280;1813;52.016;8.714;2023-04-03T01:42:59;-16261.94;;;-139.71;59.27
3598;BME280;1813;52.016;8.714;2023-04-03T01:45:33;-16261.94;;;-139.71;59.13
3598;BME280;1813;52.016;8.714;2023-04-03T01:48:10;-16261.94;;;-139.71;58.86
3598;BME280;1813;52.016;8.714;2023-04-03T01:50:44;-16261.94;;;-139.71;59.07
3598;BME280;1813;52.016;8.714;2023-04-03T01:53:18;-16261.94;;;-139.71;59.24
3598;BME280;1813;52.016;8.714;2023-04-03T01:55:52;-16261.94;;;-139.71;59.10
3598;BME280;1813;52.016;8.714;2023-04-03T01:58:26;-16261.94;;;-139.71;59.18
3598;BME280;1813;52.016;8.714;2023-04-03T02:01:00;-16261.94;;;-139.71;59.04
3598;BME280;1813;52.016;8.714;2023-04-03T02:03:36;-16261.94;;;-139.71;59.27
3598;BME280;1813;52.016;8.714;2023-04-03T02:06:11;-16261.94;;;-139.71;59.60
3598;BME280;1813;52.016;8.714;2023-04-03T02:08:45;-16261.94;;;-139.71;59.64
3598;BME280;1813;52.016;8.714;2023-04-03T02:11:19;-16261.94;;;-139.71;59.66
3598;BME280;1813;52.016;8.714;2023-04-03T02:13:53;-16261.94;;;-139.71;59.94
3598;BME280;1813;52.016;8.714;2023-04-03T02:16:28;-16261.94;;;-139.71;60.25
3598;BME280;1813;52.016;8.714;2023-04-03T02:19:05;-16261.94;;;-139.71;60.55
3598;BME280;1813;52.016;8.714;2023-04-03T02:21:39;-16261.94;;;-139.71;60.95
3598;BME280;1813;52.016;8.714;2023-04-03T02:24:13;-16261.94;;;-139.71;61.27
3598;BME280;1813;52.016;8.714;2023-04-03T02:26:47;-16261.94;;;-139.71;61.49
3598;BME280;1813;52.016;8.714;2023-04-03T02:29:22;-16261.94;;;-139.71;61.59
3598;BME280;1813;52.016;8.714;2023-04-03T02:31:56;-16261.94;;;-139.71;61.73
3598;BME280;1813;52.016;8.714;2023-04-03T02:34:32;-16261.94;;;-139.71;61.84
3598;BME280;1813;52.016;8.714;2023-04-03T02:37:10;-16261.94;;;-139.71;62.06
3598;BME280;1813;52.016;8.714;2023-04-03T02:39:44;-16261.94;;;-139.71;62.28
3598;BME280;1813;52.016;8.714;2023-04-03T02:42:18;-16261.94;;;-139.71;62.45
3598;BME280;1813;52.016;8.714;2023-04-03T02:44:52;-16261.94;;;-139.71;62.55
3598;BME280;1813;52.016;8.714;2023-04-03T02:47:26;-16261.94;;;-139.71;62.64
3598;BME280;1813;52.016;8.714;2023-04-03T02:50:03;-16261.94;;;-139.71;62.64
3598;BME280;1813;52.016;8.714;2023-04-03T02:52:38;-16261.94;;;-139.71;62.78
3598;BME280;1813;52.016;8.714;2023-04-03T02:55:14;-16261.94;;;-139.71;62.76
3598;BME280;1813;52.016;8.714;2023-04-03T02:57:50;-16261.94;;;-139.71;62.81
3598;BME280;1813;52.016;8.714;2023-04-03T03:00:24;-16261.94;;;-139.71;62.88
3598;BME280;1813;52.016;8.714;2023-04-03T03:02:58;-16261.94;;;-139.71;63.00
3598;BME280;1813;52.016;8.714;2023-04-03T03:05:35;-16261.94;;;-139.71;63.04
3598;BME280;1813;52.016;8.714;2023-04-03T03:08:09;-16261.94;;;-139.71;62.79
3598;BME280;1813;52.016;8.714;2023-04-03T03:10:44;-16261.94;;;-139.71;62.71
3598;BME280;1813;52.016;8.714;2023-04-03T03:13:18;-16261.94;;;-139.71;62.78
3598;BME280;1813;52.016;8.714;2023-04-03T03:15:52;-16261.94;;;-139.71;62.98
3598;BME280;1813;52.016;8.714;2023-04-03T03:18:26;-16261.94;;;-139.71;63.18
3598;BME280;1813;52.016;8.714;2023-04-03T03:21:03;-16261.94;;;-139.71;63.21
3598;BME280;1813;52.016;8.714;2023-04-03T03:23:39;-16261.94;;;-139.71;63.27
3598;BME280;1813;52.016;8.714;2023-04-03T03:26:13;-16261.94;;;-139.71;63.33
3598;BME280;1813;52.016;8.714;2023-04-03T03:28:47;-16261.94;;;-139.71;63.59
3598;BME280;1813;52.016;8.714;2023-04-03T03:31:21;-16261.94;;;-139.71;63.91
3598;BME280;1813;52.016;8.714;2023-04-03T03:33:55;-16261.94;;;-139.71;64.14
3598;BME280;1813;52.016;8.714;2023-04-03T03:36:32;-16261.94;;;-139.71;64.36
3598;BME280;1813;52.016;8.714;2023-04-03T03:39:07;-16261.94;;;-139.71;64.62
3598;BME280;1813;52.016;8.714;2023-04-03T03:41:41;-16261.94;;;-139.71;64.81
3598;BME280;1813;52.016;8.714;2023-04-03T03:44:15;-16261.94;;;-139.71;64.86
3598;BME280;1813;52.016;8.714;2023-04-03T03:46:49;-16261.94;;;-139.71;64.95
3598;BME280;1813;52.016;8.714;2023-04-03T03:49:23;-16261.94;;;-139.71;65.06
3598;BME280;1813;52.016;8.714;2023-04-03T03:51:59;-16261.94;;;-139.71;65.17
3598;BME280;1813;52.016;8.714;2023-04-03T03:54:33;-16261.94;;;-139.71;65.44
3598;BME280;1813;52.016;8.714;2023-04-03T03:57:08;-16261.94;;;-139.71;65.56
3598;BME280;1813;52.016;8.714;2023-04-03T03:59:42;-16261.94;;;-139.71;65.69
3598;BME280;1813;52.016;8.714;2023-04-03T04:02:17;-16261.94;;;-139.71;65.69
3598;BME280;1813;52.016;8.714;2023-04-03T04:04:51;-16261.94;;;-139.71;65.77
3598;BME280;1813;52.016;8.714;2023-04-03T04:07:28;-16261.94;;;-139.71;65.74
3598;BME280;1813;52.016;8.714;2023-04-03T04:10:06;-16261.94;;;-139.71;65.84
3598;BME280;1813;52.016;8.714;2023-04-03T04:12:40;-16261.94;;;-139.71;65.95
3598;BME280;1813;52.016;8.714;2023-04-03T04:15:14;-16261.94;;;-139.71;66.02
3598;BME280;1813;52.016;8.714;2023-04-03T04:17:48;-16261.94;;;-139.71;65.98
3598;BME280;1813;52.016;8.714;2023-04-03T04:20:23;-16261.94;;;-139.71;66.13
3598;BME280;1813;52.016;8.714;2023-04-03T04:23:00;-16261.94;;;-139.71;66.15
3598;BME280;1813;52.016;8.714;2023-04-03T04:25:35;-16261.94;;;-139.71;66.23
3598;BME280;1813;52.016;8.714;2023-04-03T04:28:10;-16261.94;;;-139.71;66.33
3598;BME280;1813;52.016;8.714;2023-04-03T04:30:45;-16261.94;;;-139.71;66.42
3598;BME280;1813;52.016;8.714;2023-04-03T04:33:20;-16261.94;;;-139.71;66.37
3598;BME280;1813;52.016;8.714;2023-04-03T04:35:55;-16261.94;;;-139.71;66.33
3598;BME280;1813;52.016;8.714;2023-04-03T04:38:34;-16261.94;;;-139.71;66.24
3598;BME280;1813;52.016;8.714;2023-04-03T04:41:09;-16261.94;;;-139.71;66.31
3598;BME280;1813;52.016;8.714;2023-04-03T04:43:43;-16261.94;;;-139.71;66.45
3598;BME280;1813;52.016;8.714;2023-04-03T04:46:18;-16261.94;;;-139.71;66.62
3598;BME280;1813;52.016;8.714;2023-04-03T04:48:57;-16261.94;;;-139.71;66.68
3598;BME280;1813;52.016;8.714;2023-04-03T04:51:34;-16261.94;;;-139.71;66.63
3598;BME280;1813;52.016;8.714;2023-04-03T04:54:10;-16261.94;;;-139.71;66.56
3598;BME280;1813;52.016;8.714;2023-04-03T04:56:45;-16261.94;;;-139.71;66.50
3598;BME280;1813;52.016;8.714;2023-04-03T04:59:19;-16261.94;;;-139.71;66.48
3598;BME280;1813;52.016;8.714;2023-04-03T05:01:53;-16261.94;;;-139.71;66.20
3598;BME280;1813;52.016;8.714;2023-04-03T05:04:27;-16261.94;;;-139.71;66.13
3598;BME280;1813;52.016;8.714;2023-04-03T05:07:08;-16261.94;;;-139.71;66.22
3598;BME280;1813;52.016;8.714;2023-04-03T05:09:45;-16261.94;;;-139.71;66.47
3598;BME280;1813;52.016;8.714;2023-04-03T05:12:21;-16261.94;;;-139.71;66.66
3598;BME280;1813;52.016;8.714;2023-04-03T05:15:00;-16261.94;;;-139.71;66.72
3598;BME280;1813;52.016;8.714;2023-04-03T05:17:35;-16261.94;;;-139.71;66.77
3598;BME280;1813;52.016;8.714;2023-04-03T05:20:11;-16261.94;;;-139.71;66.91
3598;BME280;1813;52.016;8.714;2023-04-03T05:22:46;-16261.94;;;-139.71;67.06
3598;BME280;1813;52.016;8.714;2023-04-03T05:25:23;-16261.94;;;-139.71;66.97
3598;BME280;1813;52.016;8.714;2023-04-03T05:27:57;-16261.94;;;-139.71;67.29
3598;BME280;1813;52.016;8.714;2023-04-03T05:30:31;-16261.94;;;-139.71;67.41
3598;BME280;1813;52.016;8.714;2023-04-03T05:33:07;-16261.94;;;-139.71;67.70
3598;BME280;1813;52.016;8.714;2023-04-03T05:35:49;-16261.94;;;-139.71;67.59
3598;BME280;1813;52.016;8.714;2023-04-03T05:38:28;-16261.94;;;-139.71;67.73
3598;BME280;1813;52.016;8.714;2023-04-03T05:41:06;-16261.94;;;-139.71;67.73
3598;BME280;1813;52.016;8.714;2023-04-03T05:43:40;-16261.94;;;-139.71;67.78
3598;BME280;1813;52.016;8.714;2023-04-03T05:46:16;-16261.94;;;-139.71;67.91
3598;BME280;1813;52.016;8.714;2023-04-03T05:48:55;-16261.94;;;-139.71;67.90
3598;BME280;1813;52.016;8.714;2023-04-03T05:51:35;-16261.94;;;-139.71;68.04
3598;BME280;1813;52.016;8.714;2023-04-03T05:54:25;-16261.94;;;-139.71;68.17
3598;BME280;1813;52.016;8.714;2023-04-03T05:57:09;-16261.94;;;-139.71;68.14
3598;BME280;1813;52.016;8.714;2023-04-03T05:59:46;-16261.94;;;-139.71;68.17
3598;BME280;1813;52.016;8.714;2023-04-03T06:02:22;-16261.94;;;-139.71;68.09
3598;BME280;1813;52.016;8.714;2023-04-03T06:04:56;-16261.94;;;-139.71;68.03
3598;BME280;1813;52.016;8.714;2023-04-03T06:07:30;-16261.94;;;-139.71;68.00
3598;BME280;1813;52.016;8.714;2023-04-03T06:10:06;-16261.94;;;-139.71;68.02
3598;BME280;1813;52.016;8.714;2023-04-03T06:12:43;-16261.94;;;-139.71;67.93
3598;BME280;1813;52.016;8.714;2023-04-03T06:15:17;-16261.94;;;-139.71;67.87
3598;BME280;1813;52.016;8.714;2023-04-03T06:17:51;-16261.94;;;-139.71;67.80
3598;BME280;1813;52.016;8.714;2023-04-03T06:20:26;-16261.94;;;-139.71;67.51
3598;BME280;1813;52.016;8.714;2023-04-03T06:23:00;-16261.94;;;-139.71;67.54
3598;BME280;1813;52.016;8.714;2023-04-03T06:25:34;-16261.94;;;-139.71;67.57
3598;BME280;1813;52.016;8.714;2023-04-03T06:28:11;-16261.94;;;-139.71;67.23
3598;BME280;1813;52.016;8.714;2023-04-03T06:30:45;-16261.94;;;-139.71;67.24
3598;BME280;1813;52.016;8.714;2023-04-03T06:33:19;-16261.94;;;-139.71;66.95
3598;BME280;1813;52.016;8.714;2023-04-03T06:35:57;-16261.94;;;-139.71;66.89
3598;BME280;1813;52.016;8.714;2023-04-03T06:38:32;-16261.94;;;-139.71;66.69
3598;BME280;1813;52.016;8.714;2023-04-03T06:41:06;-16261.94;;;-139.71;66.14
3598;BME280;1813;52.016;8.714;2023-04-03T06:43:43;-16261.94;;;-139.71;65.45
3598;BME280;1813;52.016;8.714;2023-04-03T06:46:18;-16261.94;;;-139.71;65.28
3598;BME280;1813;52.016;8.714;2023-04-03T06:48:53;-16261.94;;;-139.71;64.76
3598;BME280;1813;52.016;8.714;2023-04-03T06:51:28;-16261.94;;;-139.71;64.29
3598;BME280;1813;52.016;8.714;2023-04-03T06:54:03;-16261.94;;;-139.71;63.77
3598;BME280;1813;52.016;8.714;2023-04-03T06:56:37;-16261.94;;;-139.71;62.93
3598;BME280;1813;52.016;8.714;2023-04-03T06:59:14;-16261.94;;;-139.71;62.65
3598;BME280;1813;52.016;8.714;2023-04-03T07:01:49;-16261.94;;;-139.71;61.89
3598;BME280;1813;52.016;8.714;2023-04-03T07:04:22;-16261.94;;;-139.71;61.05
3598;BME280;1813;52.016;8.714;2023-04-03T07:06:59;-16261.94;;;-139.71;60.82
3598;BME280;1813;52.016;8.714;2023-04-03T07:09:35;-16261.94;;;-139.71;59.75
3598;BME280;1813;52.016;8.714;2023-04-03T07:12:13;-16261.94;;;-139.71;58.34
3598;BME280;1813;52.016;8.714;2023-04-03T07:14:50;-16261.94;;;-139.71;56.93
3598;BME280;1813;52.016;8.714;2023-04-03T07:17:24;-16261.94;;;-139.71;56.83
3598;BME280;1813;52.016;8.714;2023-04-03T07:19:58;-16261.94;;;-139.71;55.94
3598;BME280;1813;52.016;8.714;2023-04-03T07:22:35;-16261.94;;;-139.71;54.52
3598;BME280;1813;52.016;8.714;2023-04-03T07:25:09;-16261.94;;;-139.71;53.95
3598;BME280;1813;52.016;8.714;2023-04-03T07:27:43;-16261.94;;;-139.71;52.72
3598;BME280;1813;52.016;8.714;2023-04-03T07:30:20;-16261.94;;;-139.71;52.71
3598;BME280;1813;52.016;8.714;2023-04-03T07:32:54;-16261.94;;;-139.71;51.86
3598;BME280;1813;52.016;8.714;2023-04-03T07:35:28;-16261.94;;;-139.71;50.95
3598;BME280;1813;52.016;8.714;2023-04-03T07:38:02;-16261.94;;;-139.71;50.80
3598;BME280;1813;52.016;8.714;2023-04-03T07:40:38;-16261.94;;;-139.71;50.94
3598;BME280;1813;52.016;8.714;2023-04-03T07:43:12;-16261.94;;;-139.71;50.03
3598;BME280;1813;52.016;8.714;2023-04-03T07:45:49;-16261.94;;;-139.71;49.72
3598;BME280;1813;52.016;8.714;2023-04-03T07:48:25;-16261.94;;;-139.71;49.02
3598;BME280;1813;52.016;8.714;2023-04-03T07:51:00;-16261.94;;;-139.71;48.97
3598;BME280;1813;52.016;8.714;2023-04-03T07:53:34;-16261.94;;;-139.71;48.99
3598;BME280;1813;52.016;8.714;2023-04-03T07:56:08;-16261.94;;;-139.71;48.74
3598;BME280;1813;52.016;8.714;2023-04-03T07:58:42;-16261.94;;;-139.71;48.48
3598;BME280;1813;52.016;8.714;2023-04-03T08:01:19;-16261.94;;;-139.71;48.22
3598;BME280;1813;52.016;8.714;2023-04-03T08:03:54;-16261.94;;;-139.71;48.93
3598;BME280;1813;52.016;8.714;2023-04-03T08:06:28;-16261.94;;;-139.71;48.61
3598;BME280;1813;52.016;8.714;2023-04-03T08:09:04;-16261.94;;;-139.71;48.42
3598;BME280;1813;52.016;8.714;2023-04-03T08:11:38;-16261.94;;;-139.71;46.99
3598;BME280;1813;52.016;8.714;2023-04-03T08:14:13;-16261.94;;;-139.71;47.26
3598;BME280;1813;52.016;8.714;2023-04-03T08:16:51;-16261.94;;;-139.71;46.68
3598;BME280;1813;52.016;8.714;2023-04-03T08:19:25;-16261.94;;;-139.71;46.13
3598;BME280;1813;52.016;8.714;2023-04-03T08:21:59;-16261.94;;;-139.71;46.19
3598;BME280;1813;52.016;8.714;2023-04-03T08:24:34;-16261.94;;;-139.71;46.26
3598;BME280;1813;52.016;8.714;2023-04-03T08:27:08;-16261.94;;;-139.71;46.60
3598;BME280;1813;52.016;8.714;2023-04-03T08:29:42;-16261.94;;;-139.71;46.88
3598;BME280;1813;52.016;8.714;2023-04-03T08:32:19;-16261.94;;;-139.71;46.24
3598;BME280;1813;52.016;8.714;2023-04-03T08:34:53;-16261.94;;;-139.71;45.62
3598;BME280;1813;52.016;8.714;2023-04-03T08:37:27;-16261.94;;;-139.71;45.82
3598;BME280;1813;52.016;8.714;2023-04-03T08:40:00;-16261.94;;;-139.71;45.09
3598;BME280;1813;52.016;8.714;2023-04-03T08:42:41;-16261.94;;;-139.71;44.86
3598;BME280;1813;52.016;8.714;2023-04-03T08:45:25;-16261.94;;;-139.71;44.88
3598;BME280;1813;52.016;8.714;2023-04-03T08:48:05;-16261.94;;;-139.71;44.86
3598;BME280;1813;52.016;8.714;2023-04-03T08:50:41;-16261.94;;;-139.71;44.77
3598;BME280;1813;52.016;8.714;2023-04-03T08:53:19;-16261.94;;;-139.71;44.36
3598;BME280;1813;52.016;8.714;2023-04-03T08:55:55;-16261.94;;;-139.71;44.33
3598;BME280;1813;52.016;8.714;2023-04-03T08:58:31;-16261.94;;;-139.71;43.50
3598;BME280;1813;52.016;8.714;2023-04-03T09:01:17;-16261.94;;;-139.71;44.57
3598;BME280;1813;52.016;8.714;2023-04-03T09:03:54;-16261.94;;;-139.71;43.95
3598;BME280;1813;52.016;8.714;2023-04-03T09:06:30;-16261.94;;;-139.71;43.38
3598;BME280;1813;52.016;8.714;2023-04-03T09:09:12;-16261.94;;;-139.71;43.63
3598;BME280;1813;52.016;8.714;2023-04-03T09:11:51;-16261.94;;;-139.71;42.57
3598;BME280;1813;52.016;8.714;2023-04-03T09:14:33;-16261.94;;;-139.71;42.93
3598;BME280;1813;52.016;8.714;2023-04-03T09:17:15;-16261.94;;;-139.71;42.75
3598;BME280;1813;52.016;8.714;2023-04-03T09:19:57;-16261.94;;;-139.71;42.31
3598;BME280;1813;52.016;8.714;2023-04-03T09:22:41;-16261.94;;;-139.71;41.95
3598;BME280;1813;52.016;8.714;2023-04-03T09:25:19;-16261.94;;;-139.71;41.80
3598;BME280;1813;52.016;8.714;2023-04-03T09:27:54;-16261.94;;;-139.71;42.87
3598;BME280;1813;52.016;8.714;2023-04-03T09:30:29;-16261.94;;;-139.71;42.32
3598;BME280;1813;52.016;8.714;2023-04-03T09:33:04;-16261.94;;;-139.71;41.88
3598;BME280;1813;52.016;8.714;2023-04-03T09:35:41;-16261.94;;;-139.71;42.03
3598;BME280;1813;52.016;8.714;2023-04-03T09:38:18;-16261.94;;;-139.71;40.95
3598;BME280;1813;52.016;8.714;2023-04-03T09:41:05;-16261.94;;;-139.71;40.71
3598;BME280;1813;52.016;8.714;2023-04-03T09:43:39;-16261.94;;;-139.71;41.14
3598;BME280;1813;52.016;8.714;2023-04-03T09:46:29;-16261.94;;;-139.71;41.77
3598;BME280;1813;52.016;8.714;2023-04-03T09:49:05;-16261.94;;;-139.71;42.06
3598;BME280;1813;52.016;8.714;2023-04-03T09:51:42;-16261.94;;;-139.71;41.30
3598;BME280;1813;52.016;8.714;2023-04-03T09:54:32;-16261.94;;;-139.71;40.80
3598;BME280;1813;52.016;8.714;2023-04-03T09:57:11;-16261.94;;;-139.71;40.00
3598;BME280;1813;52.016;8.714;2023-04-03T09:59:55;-16261.94;;;-139.71;39.96
3598;BME280;1813;52.016;8.714;2023-04-03T10:02:35;-16261.94;;;-139.71;39.98
3598;BME280;1813;52.016;8.714;2023-04-03T10:05:30;-16261.94;;;-139.71;40.69
3598;BME280;1813;52.016;8.714;2023-04-03T10:08:20;-16261.94;;;-139.71;40.00
3598;BME280;1813;52.016;8.714;2023-04-03T10:11:12;-16261.94;;;-139.71;38.90
3598;BME280;1813;52.016;8.714;2023-04-03T10:13:51;-16261.94;;;-139.71;40.35
3598;BME280;1813;52.016;8.714;2023-04-03T10:16:36;-16261.94;;;-139.71;40.47
3598;BME280;1813;52.016;8.714;2023-04-03T10:19:24;-16261.94;;;-139.71;39.55
3598;BME280;1813;52.016;8.714;2023-04-03T10:22:12;-16261.94;;;-139.71;39.72
3598;BME280;1813;52.016;8.714;2023-04-03T10:25:01;-16261.94;;;-139.71;39.35
3598;BME280;1813;52.016;8.714;2023-04-03T10:27:42;-16261.94;;;-139.71;38.85
3598;BME280;1813;52.016;8.714;2023-04-03T10:30:30;-16261.94;;;-139.71;40.23
3598;BME280;1813;52.016;8.714;2023-04-03T10:33:23;-16261.94;;;-139.71;39.39
3598;BME280;1813;52.016;8.714;2023-04-03T10:36:24;-16261.94;;;-139.71;39.20
3598;BME280;1813;52.016;8.714;2023-04-03T10:39:06;-16261.94;;;-139.71;39.68
3598;BME280;1813;52.016;8.714;2023-04-03T10:41:57;-16261.94;;;-139.71;39.34
3598;BME280;1813;52.016;8.714;2023-04-03T10:44:39;-16261.94;;;-139.71;39.00
3598;BME280;1813;52.016;8.714;2023-04-03T10:47:20;-16261.94;;;-139.71;38.33
3598;BME280;1813;52.016;8.714;2023-04-03T10:50:01;-16261.94;;;-139.71;38.55
3598;BME280;1813;52.016;8.714;2023-04-03T10:52:43;-16261.94;;;-139.71;38.69
3598;BME280;1813;52.016;8.714;2023-04-03T10:55:28;-16261.94;;;-139.71;38.22
3598;BME280;1813;52.016;8.714;2023-04-03T10:58:17;-16261.94;;;-139.71;37.96
3598;BME280;1813;52.016;8.714;2023-04-03T11:00:55;-16261.94;;;-139.71;37.39
3598;BME280;1813;52.016;8.714;2023-04-03T11:03:36;-16261.94;;;-139.71;37.49
3598;BME280;1813;52.016;8.714;2023-04-03T11:06:14;-16261.94;;;-139.71;37.79
3598;BME280;1813;52.016;8.714;2023-04-03T11:08:51;-16261.94;;;-139.71;37.39
3598;BME280;1813;52.016;8.714;2023-04-03T11:11:31;-16261.94;;;-139.71;38.20
3598;BME280;1813;52.016;8.714;2023-04-03T11:14:16;-16261.94;;;-139.71;37.51
3598;BME280;1813;52.016;8.714;2023-04-03T11:16:59;-16261.94;;;-139.71;38.34
3598;BME280;1813;52.016;8.714;2023-04-03T11:19:39;-16261.94;;;-139.71;38.45
3598;BME280;1813;52.016;8.714;2023-04-03T11:22:22;-16261.94;;;-139.71;38.76
3598;BME280;1813;52.016;8.714;2023-04-03T11:25:03;-16261.94;;;-139.71;38.43
3598;BME280;1813;52.016;8.714;2023-04-03T11:27:43;-16261.94;;;-139.71;38.21
3598;BME280;1813;52.016;8.714;2023-04-03T11:30:23;-16261.94;;;-139.71;39.05
3598;BME280;1813;52.016;8.714;2023-04-03T11:33:28;-16261.94;;;-139.71;39.84
3598;BME280;1813;52.016;8.714;2023-04-03T11:36:08;-16261.94;;;-139.71;39.47
3598;BME280;1813;52.016;8.714;2023-04-03T11:38:46;-16261.94;;;-139.71;39.45
3598;BME280;1813;52.016;8.714;2023-04-03T11:41:26;-16261.94;;;-139.71;39.89
3598;BME280;1813;52.016;8.714;2023-04-03T11:44:04;-16261.94;;;-139.71;40.17
3598;BME280;1813;52.016;8.714;2023-04-03T11:47:00;-16261.94;;;-139.71;39.95
3598;BME280;1813;52.016;8.714;2023-04-03T11:49:59;-16261.94;;;-139.71;39.02
3598;BME280;1813;52.016;8.714;2023-04-03T11:52:58;-16261.94;;;-139.71;39.49
3598;BME280;1813;52.016;8.714;2023-04-03T11:55:53;-16261.94;;;-139.71;39.79
3598;BME280;1813;52.016;8.714;2023-04-03T11:58:29;-16261.94;;;-139.71;38.95
3598;BME280;1813;52.016;8.714;2023-04-03T12:01:06;-16261.94;;;-139.71;39.85
3598;BME280;1813;52.016;8.714;2023-04-03T12:07:13;-16261.94;;;-139.71;38.96
3598;BME280;1813;52.016;8.714;2023-04-03T12:09:58;-16261.94;;;-139.71;38.97
3598;BME280;1813;52.016;8.714;2023-04-03T12:12:38;-16261.94;;;-139.71;38.62
3598;BME280;1813;52.016;8.714;2023-04-03T12:15:22;-16261.94;;;-139.71;39.07
3598;BME280;1813;52.016;8.714;2023-04-03T12:17:57;-16261.94;;;-139.71;39.99
3598;BME280;1813;52.016;8.714;2023-04-03T12:20:53;-16261.94;;;-139.71;39.19
3598;BME280;1813;52.016;8.714;2023-04-03T12:23:31;-16261.94;;;-139.71;38.19
3598;BME280;1813;52.016;8.714;2023-04-03T12:26:21;-16261.94;;;-139.71;38.22
3598;BME280;1813;52.016;8.714;2023-04-03T12:28:57;-16261.94;;;-139.71;38.40
3598;BME280;1813;52.016;8.714;2023-04-03T12:31:41;-16261.94;;;-139.71;38.47
3598;BME280;1813;52.016;8.714;2023-04-03T12:34:31;-16261.94;;;-139.71;39.76
3598;BME280;1813;52.016;8.714;2023-04-03T12:37:21;-16261.94;;;-139.71;38.95
3598;BME280;1813;52.016;8.714;2023-04-03T12:40:10;-16261.94;;;-139.71;38.49
3598;BME280;1813;52.016;8.714;2023-04-03T12:43:05;-16261.94;;;-139.71;38.09
3598;BME280;1813;52.016;8.714;2023-04-03T12:45:47;-16261.94;;;-139.71;38.38
3598;BME280;1813;52.016;8.714;2023-04-03T12:48:26;-16261.94;;;-139.71;39.49
3598;BME280;1813;52.016;8.714;2023-04-03T12:51:02;-16261.94;;;-139.71;39.28
3598;BME280;1813;52.016;8.714;2023-04-03T12:53:36;-16261.94;;;-139.71;38.56
3598;BME280;1813;52.016;8.714;2023-04-03T12:56:23;-16261.94;;;-139.71;37.85
3598;BME280;1813;52.016;8.714;2023-04-03T12:59:15;-16261.94;;;-139.71;37.48
3598;BME280;1813;52.016;8.714;2023-04-03T13:01:57;-16261.94;;;-139.71;37.15
3598;BME280;1813;52.016;8.714;2023-04-03T13:04:31;-16261.94;;;-139.71;37.53
3598;BME280;1813;52.016;8.714;2023-04-03T13:07:05;-16261.94;;;-139.71;36.85
3598;BME280;1813;52.016;8.714;2023-04-03T13:09:59;-16261.94;;;-139.71;37.24
3598;BME280;1813;52.016;8.714;2023-04-03T13:12:46;-16261.94;;;-139.71;36.33
3598;BME280;1813;52.016;8.714;2023-04-03T13:15:22;-16261.94;;;-139.71;36.20
3598;BME280;1813;52.016;8.714;2023-04-03T13:17:57;-16261.94;;;-139.71;36.42
3598;BME280;1813;52.016;8.714;2023-04-03T13:20:34;-16261.94;;;-139.71;36.09
3598;BME280;1813;52.016;8.714;2023-04-03T13:23:12;-16261.94;;;-139.71;35.56
3598;BME280;1813;52.016;8.714;2023-04-03T13:25:49;-16261.94;;;-139.71;35.65
3598;BME280;1813;52.016;8.714;2023-04-03T13:28:27;-16261.94;;;-139.71;35.99
3598;BME280;1813;52.016;8.714;2023-04-03T13:31:07;-16261.94;;;-139.71;37.25
3598;BME280;1813;52.016;8.714;2023-04-03T13:33:55;-16261.94;;;-139.71;36.10
3598;BME280;1813;52.016;8.714;2023-04-03T13:36:31;-16261.94;;;-139.71;36.89
3598;BME280;1813;52.016;8.714;2023-04-03T13:39:17;-16261.94;;;-139.71;36.54
3598;BME280;1813;52.016;8.714;2023-04-03T13:41:55;-16261.94;;;-139.71;36.69
3598;BME280;1813;52.016;8.714;2023-04-03T13:44:36;-16261.94;;;-139.71;37.08
3598;BME280;1813;52.016;8.714;2023-04-03T13:47:17;-16261.94;;;-139.71;36.94
3598;BME280;1813;52.016;8.714;2023-04-03T13:50:03;-16261.94;;;-139.71;36.74